sensor_id;sensor_type;location;lat;lon;timestamp;P1;durP1;ratioP1;P2;durP2;ratioP2
51927;SDS011;37953;52.806;18.270;2023-05-03T00:00:07;9.27;;;2.60;;
51927;SDS011;37953;52.806;18.270;2023-05-03T00:02:54;9.77;;;3.00;;
51927;SDS011;37953;52.806;18.270;2023-05-03T00:05:21;12.38;;;3.75;;
51927;SDS011;37953;52.806;18.270;2023-05-03T00:07:48;10.73;;;3.33;;
51927;SDS011;37953;52.806;18.270;2023-05-03T00:10:14;10.95;;;2.63;;
51927;SDS011;37953;52.806;18.270;2023-05-03T00:12:42;10.07;;;2.20;;
51927;SDS011;37953;52.806;18.270;2023-05-03T00:15:09;10.98;;;2.22;;
51927;SDS011;37953;52.806;18.270;2023-05-03T00:17:35;8.32;;;2.25;;
51927;SDS011;37953;52.806;18.270;2023-05-03T00:20:02;8.45;;;2.20;;
51927;SDS011;37953;52.806;18.270;2023-05-03T00:22:29;11.75;;;2.38;;
51927;SDS011;37953;52.806;18.270;2023-05-03T00:25:02;13.02;;;2.15;;
51927;SDS011;37953;52.806;18.270;2023-05-03T00:27:29;9.18;;;2.35;;
51927;SDS011;37953;52.806;18.270;2023-05-03T00:29:55;9.23;;;2.65;;
51927;SDS011;37953;52.806;18.270;2023-05-03T00:32:21;15.90;;;3.60;;
51927;SDS011;37953;52.806;18.270;2023-05-03T00:34:59;10.38;;;3.72;;
51927;SDS011;37953;52.806;18.270;2023-05-03T00:37:25;11.00;;;4.43;;
51927;SDS011;37953;52.806;18.270;2023-05-03T00:39:51;9.57;;;4.38;;
51927;SDS011;37953;52.806;18.270;2023-05-03T00:42:18;11.18;;;4.22;;
51927;SDS011;37953;52.806;18.270;2023-05-03T00:44:44;12.65;;;3.83;;
51927;SDS011;37953;52.806;18.270;2023-05-03T00:47:10;10.35;;;3.20;;
51927;SDS011;37953;52.806;18.270;2023-05-03T00:49:42;6.28;;;2.88;;
51927;SDS011;37953;52.806;18.270;2023-05-03T00:52:09;6.82;;;2.78;;
51927;SDS011;37953;52.806;18.270;2023-05-03T00:54:36;5.22;;;2.47;;
51927;SDS011;37953;52.806;18.270;2023-05-03T00:57:03;6.07;;;2.30;;
51927;SDS011;37953;52.806;18.270;2023-05-03T00:59:29;7.10;;;2.35;;
51927;SDS011;37953;52.806;18.270;2023-05-03T01:02:02;6.68;;;2.13;;
51927;SDS011;37953;52.806;18.270;2023-05-03T01:04:28;49.60;;;4.88;;
51927;SDS011;37953;52.806;18.270;2023-05-03T01:07:01;9.77;;;2.85;;
51927;SDS011;37953;52.806;18.270;2023-05-03T01:09:52;10.57;;;2.53;;
51927;SDS011;37953;52.806;18.270;2023-05-03T01:12:32;11.10;;;2.78;;
51927;SDS011;37953;52.806;18.270;2023-05-03T01:18:13;10.57;;;2.60;;
51927;SDS011;37953;52.806;18.270;2023-05-03T01:20:44;9.05;;;2.47;;
51927;SDS011;37953;52.806;18.270;2023-05-03T01:23:14;7.97;;;2.50;;
51927;SDS011;37953;52.806;18.270;2023-05-03T01:25:57;11.05;;;2.63;;
51927;SDS011;37953;52.806;18.270;2023-05-03T01:28:23;13.40;;;2.55;;
51927;SDS011;37953;52.806;18.270;2023-05-03T01:30:50;12.98;;;2.90;;
51927;SDS011;37953;52.806;18.270;2023-05-03T01:36:18;16.52;;;3.03;;
51927;SDS011;37953;52.806;18.270;2023-05-03T01:38:47;11.55;;;2.60;;
51927;SDS011;37953;52.806;18.270;2023-05-03T01:41:14;17.52;;;3.25;;
51927;SDS011;37953;52.806;18.270;2023-05-03T01:43:42;10.98;;;2.40;;
51927;SDS011;37953;52.806;18.270;2023-05-03T01:46:10;16.15;;;2.85;;
51927;SDS011;37953;52.806;18.270;2023-05-03T01:48:36;14.88;;;3.00;;
51927;SDS011;37953;52.806;18.270;2023-05-03T01:51:02;10.02;;;2.72;;
51927;SDS011;37953;52.806;18.270;2023-05-03T01:53:28;12.02;;;2.55;;
51927;SDS011;37953;52.806;18.270;2023-05-03T01:55:54;14.80;;;2.90;;
51927;SDS011;37953;52.806;18.270;2023-05-03T01:58:22;13.15;;;2.80;;
51927;SDS011;37953;52.806;18.270;2023-05-03T02:00:48;10.38;;;2.50;;
51927;SDS011;37953;52.806;18.270;2023-05-03T02:03:14;9.90;;;2.72;;
51927;SDS011;37953;52.806;18.270;2023-05-03T02:05:40;6.65;;;2.75;;
51927;SDS011;37953;52.806;18.270;2023-05-03T02:08:06;5.00;;;2.47;;
51927;SDS011;37953;52.806;18.270;2023-05-03T02:10:33;10.88;;;2.60;;
51927;SDS011;37953;52.806;18.270;2023-05-03T02:12:58;6.70;;;2.50;;
51927;SDS011;37953;52.806;18.270;2023-05-03T02:15:25;9.95;;;2.80;;
51927;SDS011;37953;52.806;18.270;2023-05-03T02:17:51;6.97;;;2.78;;
51927;SDS011;37953;52.806;18.270;2023-05-03T02:20:18;7.30;;;2.65;;
51927;SDS011;37953;52.806;18.270;2023-05-03T02:22:44;5.90;;;2.83;;
51927;SDS011;37953;52.806;18.270;2023-05-03T02:25:10;4.57;;;2.47;;
51927;SDS011;37953;52.806;18.270;2023-05-03T02:27:36;9.80;;;2.90;;
51927;SDS011;37953;52.806;18.270;2023-05-03T02:30:02;6.30;;;2.97;;
51927;SDS011;37953;52.806;18.270;2023-05-03T02:32:28;8.73;;;2.78;;
51927;SDS011;37953;52.806;18.270;2023-05-03T02:34:55;14.57;;;3.03;;
51927;SDS011;37953;52.806;18.270;2023-05-03T02:37:24;8.43;;;2.90;;
51927;SDS011;37953;52.806;18.270;2023-05-03T02:39:50;9.77;;;2.67;;
51927;SDS011;37953;52.806;18.270;2023-05-03T02:42:16;12.65;;;3.17;;
51927;SDS011;37953;52.806;18.270;2023-05-03T02:44:42;10.05;;;3.17;;
51927;SDS011;37953;52.806;18.270;2023-05-03T02:47:14;8.90;;;2.60;;
51927;SDS011;37953;52.806;18.270;2023-05-03T02:49:40;6.85;;;2.40;;
51927;SDS011;37953;52.806;18.270;2023-05-03T02:52:06;8.57;;;2.63;;
51927;SDS011;37953;52.806;18.270;2023-05-03T02:54:32;8.15;;;2.65;;
51927;SDS011;37953;52.806;18.270;2023-05-03T02:56:58;6.65;;;2.63;;
51927;SDS011;37953;52.806;18.270;2023-05-03T02:59:24;9.30;;;2.40;;
51927;SDS011;37953;52.806;18.270;2023-05-03T03:01:50;7.00;;;2.55;;
51927;SDS011;37953;52.806;18.270;2023-05-03T03:04:16;7.78;;;2.67;;
51927;SDS011;37953;52.806;18.270;2023-05-03T03:06:42;6.60;;;2.50;;
51927;SDS011;37953;52.806;18.270;2023-05-03T03:09:08;6.00;;;2.60;;
51927;SDS011;37953;52.806;18.270;2023-05-03T03:11:34;4.85;;;2.17;;
51927;SDS011;37953;52.806;18.270;2023-05-03T03:14:00;4.80;;;2.30;;
51927;SDS011;37953;52.806;18.270;2023-05-03T03:16:26;6.40;;;2.15;;
51927;SDS011;37953;52.806;18.270;2023-05-03T03:18:53;6.93;;;2.20;;
51927;SDS011;37953;52.806;18.270;2023-05-03T03:21:19;5.00;;;2.33;;
51927;SDS011;37953;52.806;18.270;2023-05-03T03:23:45;6.43;;;2.40;;
51927;SDS011;37953;52.806;18.270;2023-05-03T03:26:14;6.60;;;2.55;;
51927;SDS011;37953;52.806;18.270;2023-05-03T03:28:40;4.00;;;2.20;;
51927;SDS011;37953;52.806;18.270;2023-05-03T03:31:06;7.05;;;2.28;;
51927;SDS011;37953;52.806;18.270;2023-05-03T03:33:32;4.72;;;2.15;;
51927;SDS011;37953;52.806;18.270;2023-05-03T03:35:58;9.23;;;2.40;;
51927;SDS011;37953;52.806;18.270;2023-05-03T03:38:24;7.82;;;2.50;;
51927;SDS011;37953;52.806;18.270;2023-05-03T03:40:50;8.82;;;2.45;;
51927;SDS011;37953;52.806;18.270;2023-05-03T03:43:17;10.60;;;2.53;;
51927;SDS011;37953;52.806;18.270;2023-05-03T03:45:43;13.20;;;2.80;;
51927;SDS011;37953;52.806;18.270;2023-05-03T03:48:09;11.05;;;2.90;;
51927;SDS011;37953;52.806;18.270;2023-05-03T03:50:35;10.88;;;2.67;;
51927;SDS011;37953;52.806;18.270;2023-05-03T03:53:01;6.45;;;2.78;;
51927;SDS011;37953;52.806;18.270;2023-05-03T03:55:27;7.22;;;2.58;;
51927;SDS011;37953;52.806;18.270;2023-05-03T03:57:53;8.43;;;2.53;;
51927;SDS011;37953;52.806;18.270;2023-05-03T04:00:19;9.45;;;2.85;;
51927;SDS011;37953;52.806;18.270;2023-05-03T04:02:46;14.57;;;2.85;;
51927;SDS011;37953;52.806;18.270;2023-05-03T04:05:11;5.88;;;2.47;;
51927;SDS011;37953;52.806;18.270;2023-05-03T04:07:37;9.13;;;2.88;;
51927;SDS011;37953;52.806;18.270;2023-05-03T04:10:03;14.27;;;3.17;;
51927;SDS011;37953;52.806;18.270;2023-05-03T04:12:36;14.32;;;3.20;;
51927;SDS011;37953;52.806;18.270;2023-05-03T04:15:02;9.90;;;3.20;;
51927;SDS011;37953;52.806;18.270;2023-05-03T04:17:29;11.00;;;3.15;;
51927;SDS011;37953;52.806;18.270;2023-05-03T04:19:57;15.40;;;3.25;;
51927;SDS011;37953;52.806;18.270;2023-05-03T04:22:23;11.35;;;2.78;;
51927;SDS011;37953;52.806;18.270;2023-05-03T04:24:49;20.17;;;2.97;;
51927;SDS011;37953;52.806;18.270;2023-05-03T04:27:15;16.70;;;2.92;;
51927;SDS011;37953;52.806;18.270;2023-05-03T04:29:42;16.30;;;3.13;;
51927;SDS011;37953;52.806;18.270;2023-05-03T04:32:14;14.43;;;3.22;;
51927;SDS011;37953;52.806;18.270;2023-05-03T04:34:43;15.48;;;3.35;;
51927;SDS011;37953;52.806;18.270;2023-05-03T04:37:09;10.88;;;2.70;;
51927;SDS011;37953;52.806;18.270;2023-05-03T04:39:35;10.73;;;2.75;;
51927;SDS011;37953;52.806;18.270;2023-05-03T04:42:01;8.75;;;2.70;;
51927;SDS011;37953;52.806;18.270;2023-05-03T04:44:27;13.32;;;3.28;;
51927;SDS011;37953;52.806;18.270;2023-05-03T04:46:53;9.60;;;2.58;;
51927;SDS011;37953;52.806;18.270;2023-05-03T04:49:19;13.15;;;2.90;;
51927;SDS011;37953;52.806;18.270;2023-05-03T04:51:45;7.57;;;2.60;;
51927;SDS011;37953;52.806;18.270;2023-05-03T04:54:11;9.43;;;3.00;;
51927;SDS011;37953;52.806;18.270;2023-05-03T04:56:37;7.57;;;2.67;;
51927;SDS011;37953;52.806;18.270;2023-05-03T04:59:03;6.50;;;2.92;;
51927;SDS011;37953;52.806;18.270;2023-05-03T05:01:30;11.77;;;4.45;;
51927;SDS011;37953;52.806;18.270;2023-05-03T05:03:56;10.75;;;3.90;;
51927;SDS011;37953;52.806;18.270;2023-05-03T05:06:37;12.82;;;3.53;;
51927;SDS011;37953;52.806;18.270;2023-05-03T05:09:05;11.30;;;3.38;;
51927;SDS011;37953;52.806;18.270;2023-05-03T05:11:31;18.00;;;3.30;;
51927;SDS011;37953;52.806;18.270;2023-05-03T05:13:58;8.75;;;3.00;;
51927;SDS011;37953;52.806;18.270;2023-05-03T05:16:24;9.13;;;2.97;;
51927;SDS011;37953;52.806;18.270;2023-05-03T05:18:50;10.57;;;3.05;;
51927;SDS011;37953;52.806;18.270;2023-05-03T05:21:16;10.00;;;3.17;;
51927;SDS011;37953;52.806;18.270;2023-05-03T05:23:42;8.68;;;2.92;;
51927;SDS011;37953;52.806;18.270;2023-05-03T05:26:08;11.98;;;2.95;;
51927;SDS011;37953;52.806;18.270;2023-05-03T05:28:34;10.98;;;2.75;;
51927;SDS011;37953;52.806;18.270;2023-05-03T05:31:00;11.60;;;3.30;;
51927;SDS011;37953;52.806;18.270;2023-05-03T05:33:26;14.68;;;3.50;;
51927;SDS011;37953;52.806;18.270;2023-05-03T05:35:52;8.05;;;2.72;;
51927;SDS011;37953;52.806;18.270;2023-05-03T05:38:18;7.22;;;2.80;;
51927;SDS011;37953;52.806;18.270;2023-05-03T05:40:44;8.50;;;2.60;;
51927;SDS011;37953;52.806;18.270;2023-05-03T05:43:10;8.63;;;2.95;;
51927;SDS011;37953;52.806;18.270;2023-05-03T05:45:36;9.98;;;2.83;;
51927;SDS011;37953;52.806;18.270;2023-05-03T05:48:03;7.93;;;3.08;;
51927;SDS011;37953;52.806;18.270;2023-05-03T05:50:29;9.73;;;3.40;;
51927;SDS011;37953;52.806;18.270;2023-05-03T05:52:56;13.63;;;2.85;;
51927;SDS011;37953;52.806;18.270;2023-05-03T05:55:22;6.50;;;2.50;;
51927;SDS011;37953;52.806;18.270;2023-05-03T05:57:48;8.75;;;2.45;;
51927;SDS011;37953;52.806;18.270;2023-05-03T06:00:14;11.77;;;3.30;;
51927;SDS011;37953;52.806;18.270;2023-05-03T06:02:42;10.82;;;3.03;;
51927;SDS011;37953;52.806;18.270;2023-05-03T06:05:09;26.73;;;4.07;;
51927;SDS011;37953;52.806;18.270;2023-05-03T06:07:36;12.60;;;3.05;;
51927;SDS011;37953;52.806;18.270;2023-05-03T06:10:02;12.98;;;3.53;;
51927;SDS011;37953;52.806;18.270;2023-05-03T06:12:29;12.32;;;3.30;;
51927;SDS011;37953;52.806;18.270;2023-05-03T06:14:55;8.90;;;2.70;;
51927;SDS011;37953;52.806;18.270;2023-05-03T06:17:22;10.95;;;2.90;;
51927;SDS011;37953;52.806;18.270;2023-05-03T06:19:48;14.43;;;3.13;;
51927;SDS011;37953;52.806;18.270;2023-05-03T06:22:14;12.63;;;2.80;;
51927;SDS011;37953;52.806;18.270;2023-05-03T06:24:46;7.45;;;2.47;;
51927;SDS011;37953;52.806;18.270;2023-05-03T06:27:12;10.13;;;2.40;;
51927;SDS011;37953;52.806;18.270;2023-05-03T06:29:38;12.93;;;2.63;;
51927;SDS011;37953;52.806;18.270;2023-05-03T06:32:04;12.35;;;3.17;;
51927;SDS011;37953;52.806;18.270;2023-05-03T06:34:30;9.25;;;3.10;;
51927;SDS011;37953;52.806;18.270;2023-05-03T06:36:56;5.82;;;2.20;;
51927;SDS011;37953;52.806;18.270;2023-05-03T06:39:22;4.80;;;2.17;;
51927;SDS011;37953;52.806;18.270;2023-05-03T06:41:48;6.03;;;2.35;;
51927;SDS011;37953;52.806;18.270;2023-05-03T06:44:14;9.25;;;2.38;;
51927;SDS011;37953;52.806;18.270;2023-05-03T06:46:40;5.43;;;2.40;;
51927;SDS011;37953;52.806;18.270;2023-05-03T06:49:06;4.53;;;1.90;;
51927;SDS011;37953;52.806;18.270;2023-05-03T06:51:32;8.45;;;2.38;;
51927;SDS011;37953;52.806;18.270;2023-05-03T06:53:59;5.43;;;2.10;;
51927;SDS011;37953;52.806;18.270;2023-05-03T06:56:33;5.13;;;2.20;;
51927;SDS011;37953;52.806;18.270;2023-05-03T06:59:01;6.70;;;1.70;;
51927;SDS011;37953;52.806;18.270;2023-05-03T07:01:28;7.18;;;1.88;;
51927;SDS011;37953;52.806;18.270;2023-05-03T07:03:57;4.97;;;1.95;;
51927;SDS011;37953;52.806;18.270;2023-05-03T07:06:22;8.68;;;2.05;;
51927;SDS011;37953;52.806;18.270;2023-05-03T07:08:49;9.02;;;1.83;;
51927;SDS011;37953;52.806;18.270;2023-05-03T07:11:16;9.45;;;2.38;;
51927;SDS011;37953;52.806;18.270;2023-05-03T07:13:54;6.68;;;1.88;;
51927;SDS011;37953;52.806;18.270;2023-05-03T07:16:20;7.72;;;1.73;;
51927;SDS011;37953;52.806;18.270;2023-05-03T07:18:47;6.28;;;1.75;;
51927;SDS011;37953;52.806;18.270;2023-05-03T07:21:13;9.43;;;2.03;;
51927;SDS011;37953;52.806;18.270;2023-05-03T07:23:43;7.95;;;1.60;;
51927;SDS011;37953;52.806;18.270;2023-05-03T07:26:09;7.95;;;1.60;;
51927;SDS011;37953;52.806;18.270;2023-05-03T07:28:35;6.68;;;1.88;;
51927;SDS011;37953;52.806;18.270;2023-05-03T07:31:01;9.98;;;2.00;;
51927;SDS011;37953;52.806;18.270;2023-05-03T07:33:29;8.55;;;1.95;;
51927;SDS011;37953;52.806;18.270;2023-05-03T07:35:58;6.85;;;1.40;;
51927;SDS011;37953;52.806;18.270;2023-05-03T07:38:24;6.60;;;1.35;;
51927;SDS011;37953;52.806;18.270;2023-05-03T07:40:50;8.00;;;1.70;;
51927;SDS011;37953;52.806;18.270;2023-05-03T07:43:16;4.55;;;1.63;;
51927;SDS011;37953;52.806;18.270;2023-05-03T07:45:48;6.78;;;1.50;;
51927;SDS011;37953;52.806;18.270;2023-05-03T07:48:20;8.57;;;1.98;;
51927;SDS011;37953;52.806;18.270;2023-05-03T07:50:46;13.80;;;2.35;;
51927;SDS011;37953;52.806;18.270;2023-05-03T07:53:13;9.27;;;1.85;;
51927;SDS011;37953;52.806;18.270;2023-05-03T07:55:39;7.28;;;1.50;;
51927;SDS011;37953;52.806;18.270;2023-05-03T07:58:06;10.82;;;1.75;;
51927;SDS011;37953;52.806;18.270;2023-05-03T08:00:33;9.18;;;1.70;;
51927;SDS011;37953;52.806;18.270;2023-05-03T08:02:59;7.50;;;1.50;;
51927;SDS011;37953;52.806;18.270;2023-05-03T08:05:27;9.80;;;1.60;;
51927;SDS011;37953;52.806;18.270;2023-05-03T08:07:54;7.63;;;1.55;;
51927;SDS011;37953;52.806;18.270;2023-05-03T08:10:20;12.77;;;1.88;;
51927;SDS011;37953;52.806;18.270;2023-05-03T08:12:46;17.77;;;2.35;;
51927;SDS011;37953;52.806;18.270;2023-05-03T08:15:12;9.38;;;2.20;;
51927;SDS011;37953;52.806;18.270;2023-05-03T08:17:42;12.13;;;1.80;;
51927;SDS011;37953;52.806;18.270;2023-05-03T08:20:09;13.95;;;1.90;;
51927;SDS011;37953;52.806;18.270;2023-05-03T08:22:37;12.45;;;1.85;;
51927;SDS011;37953;52.806;18.270;2023-05-03T08:25:04;12.20;;;1.77;;
51927;SDS011;37953;52.806;18.270;2023-05-03T08:27:37;8.77;;;1.83;;
51927;SDS011;37953;52.806;18.270;2023-05-03T08:30:05;11.65;;;1.73;;
51927;SDS011;37953;52.806;18.270;2023-05-03T08:32:32;13.43;;;1.70;;
51927;SDS011;37953;52.806;18.270;2023-05-03T08:34:58;40.03;;;3.50;;
51927;SDS011;37953;52.806;18.270;2023-05-03T08:37:25;10.48;;;1.80;;
51927;SDS011;37953;52.806;18.270;2023-05-03T08:39:59;11.25;;;1.90;;
51927;SDS011;37953;52.806;18.270;2023-05-03T08:42:25;6.82;;;1.58;;
51927;SDS011;37953;52.806;18.270;2023-05-03T08:44:55;8.00;;;1.60;;
51927;SDS011;37953;52.806;18.270;2023-05-03T08:47:22;12.20;;;1.90;;
51927;SDS011;37953;52.806;18.270;2023-05-03T08:49:48;8.85;;;1.77;;
51927;SDS011;37953;52.806;18.270;2023-05-03T08:52:17;5.82;;;1.45;;
51927;SDS011;37953;52.806;18.270;2023-05-03T08:54:45;7.28;;;1.55;;
51927;SDS011;37953;52.806;18.270;2023-05-03T08:57:18;12.02;;;1.80;;
51927;SDS011;37953;52.806;18.270;2023-05-03T08:59:50;10.80;;;1.80;;
51927;SDS011;37953;52.806;18.270;2023-05-03T09:02:25;6.13;;;1.75;;
51927;SDS011;37953;52.806;18.270;2023-05-03T09:04:54;7.72;;;1.77;;
51927;SDS011;37953;52.806;18.270;2023-05-03T09:07:21;7.20;;;1.58;;
51927;SDS011;37953;52.806;18.270;2023-05-03T09:09:47;6.50;;;1.75;;
51927;SDS011;37953;52.806;18.270;2023-05-03T09:12:32;5.18;;;1.52;;
51927;SDS011;37953;52.806;18.270;2023-05-03T09:15:00;6.22;;;1.40;;
51927;SDS011;37953;52.806;18.270;2023-05-03T09:17:28;10.20;;;1.60;;
51927;SDS011;37953;52.806;18.270;2023-05-03T09:19:55;7.30;;;1.40;;
51927;SDS011;37953;52.806;18.270;2023-05-03T09:22:24;14.35;;;2.13;;
51927;SDS011;37953;52.806;18.270;2023-05-03T09:24:53;6.97;;;1.55;;
51927;SDS011;37953;52.806;18.270;2023-05-03T09:27:20;8.95;;;1.73;;
51927;SDS011;37953;52.806;18.270;2023-05-03T09:29:46;7.07;;;1.50;;
51927;SDS011;37953;52.806;18.270;2023-05-03T09:32:19;6.32;;;1.85;;
51927;SDS011;37953;52.806;18.270;2023-05-03T09:34:47;8.25;;;1.45;;
51927;SDS011;37953;52.806;18.270;2023-05-03T09:37:13;8.98;;;1.70;;
51927;SDS011;37953;52.806;18.270;2023-05-03T09:39:40;6.18;;;1.38;;
51927;SDS011;37953;52.806;18.270;2023-05-03T09:42:16;5.72;;;1.63;;
51927;SDS011;37953;52.806;18.270;2023-05-03T09:47:13;7.22;;;1.48;;
51927;SDS011;37953;52.806;18.270;2023-05-03T09:49:40;6.25;;;1.30;;
51927;SDS011;37953;52.806;18.270;2023-05-03T09:52:12;7.43;;;1.38;;
51927;SDS011;37953;52.806;18.270;2023-05-03T09:54:38;8.48;;;1.65;;
51927;SDS011;37953;52.806;18.270;2023-05-03T09:57:06;7.70;;;1.48;;
51927;SDS011;37953;52.806;18.270;2023-05-03T09:59:33;4.70;;;1.27;;
51927;SDS011;37953;52.806;18.270;2023-05-03T10:02:04;6.18;;;1.30;;
51927;SDS011;37953;52.806;18.270;2023-05-03T10:04:38;6.90;;;1.40;;
51927;SDS011;37953;52.806;18.270;2023-05-03T10:07:10;9.82;;;1.75;;
51927;SDS011;37953;52.806;18.270;2023-05-03T10:09:39;6.97;;;1.60;;
51927;SDS011;37953;52.806;18.270;2023-05-03T10:12:08;5.82;;;1.20;;
51927;SDS011;37953;52.806;18.270;2023-05-03T10:14:42;7.13;;;1.95;;
51927;SDS011;37953;52.806;18.270;2023-05-03T10:20:01;9.63;;;1.73;;
51927;SDS011;37953;52.806;18.270;2023-05-03T10:25:39;4.53;;;1.35;;
51927;SDS011;37953;52.806;18.270;2023-05-03T10:28:25;8.18;;;1.50;;
51927;SDS011;37953;52.806;18.270;2023-05-03T10:30:51;8.63;;;1.38;;
51927;SDS011;37953;52.806;18.270;2023-05-03T10:35:50;5.60;;;1.20;;
51927;SDS011;37953;52.806;18.270;2023-05-03T10:38:20;8.93;;;1.63;;
51927;SDS011;37953;52.806;18.270;2023-05-03T10:40:50;7.65;;;1.60;;
51927;SDS011;37953;52.806;18.270;2023-05-03T10:46:00;6.22;;;1.52;;
51927;SDS011;37953;52.806;18.270;2023-05-03T10:48:28;8.15;;;1.90;;
51927;SDS011;37953;52.806;18.270;2023-05-03T10:50:55;6.30;;;1.63;;
51927;SDS011;37953;52.806;18.270;2023-05-03T10:56:01;13.13;;;1.45;;
51927;SDS011;37953;52.806;18.270;2023-05-03T10:58:36;7.63;;;1.80;;
51927;SDS011;37953;52.806;18.270;2023-05-03T11:01:08;6.85;;;1.42;;
51927;SDS011;37953;52.806;18.270;2023-05-03T11:06:35;7.18;;;1.60;;
51927;SDS011;37953;52.806;18.270;2023-05-03T11:09:06;4.70;;;1.23;;
51927;SDS011;37953;52.806;18.270;2023-05-03T11:11:35;8.45;;;1.38;;
51927;SDS011;37953;52.806;18.270;2023-05-03T11:14:04;7.72;;;1.63;;
51927;SDS011;37953;52.806;18.270;2023-05-03T11:16:30;5.30;;;1.38;;
51927;SDS011;37953;52.806;18.270;2023-05-03T11:19:03;5.57;;;1.33;;
51927;SDS011;37953;52.806;18.270;2023-05-03T11:21:30;6.03;;;1.65;;
51927;SDS011;37953;52.806;18.270;2023-05-03T11:23:57;10.98;;;1.98;;
51927;SDS011;37953;52.806;18.270;2023-05-03T11:26:24;7.70;;;1.52;;
51927;SDS011;37953;52.806;18.270;2023-05-03T11:28:50;6.90;;;1.35;;
51927;SDS011;37953;52.806;18.270;2023-05-03T11:31:23;10.02;;;1.70;;
51927;SDS011;37953;52.806;18.270;2023-05-03T11:33:49;11.52;;;1.40;;
51927;SDS011;37953;52.806;18.270;2023-05-03T11:36:15;9.40;;;1.40;;
51927;SDS011;37953;52.806;18.270;2023-05-03T11:38:41;5.93;;;1.35;;
51927;SDS011;37953;52.806;18.270;2023-05-03T11:41:14;7.10;;;2.10;;
51927;SDS011;37953;52.806;18.270;2023-05-03T11:43:42;5.93;;;1.65;;
51927;SDS011;37953;52.806;18.270;2023-05-03T11:46:15;10.68;;;1.80;;
51927;SDS011;37953;52.806;18.270;2023-05-03T11:48:46;9.20;;;1.42;;
51927;SDS011;37953;52.806;18.270;2023-05-03T11:51:12;7.45;;;1.55;;
51927;SDS011;37953;52.806;18.270;2023-05-03T11:53:39;6.55;;;1.45;;
51927;SDS011;37953;52.806;18.270;2023-05-03T11:56:07;9.88;;;1.70;;
51927;SDS011;37953;52.806;18.270;2023-05-03T11:58:47;8.63;;;1.63;;
51927;SDS011;37953;52.806;18.270;2023-05-03T12:01:23;5.53;;;1.23;;
51927;SDS011;37953;52.806;18.270;2023-05-03T12:06:24;5.18;;;1.25;;
51927;SDS011;37953;52.806;18.270;2023-05-03T12:08:53;6.72;;;1.60;;
51927;SDS011;37953;52.806;18.270;2023-05-03T12:11:19;10.70;;;1.65;;
51927;SDS011;37953;52.806;18.270;2023-05-03T12:13:54;5.60;;;1.30;;
51927;SDS011;37953;52.806;18.270;2023-05-03T12:16:24;6.63;;;1.42;;
51927;SDS011;37953;52.806;18.270;2023-05-03T12:18:55;10.95;;;1.80;;
51927;SDS011;37953;52.806;18.270;2023-05-03T12:21:41;6.68;;;1.23;;
51927;SDS011;37953;52.806;18.270;2023-05-03T12:24:12;6.68;;;1.30;;
51927;SDS011;37953;52.806;18.270;2023-05-03T12:26:46;6.15;;;1.30;;
51927;SDS011;37953;52.806;18.270;2023-05-03T12:29:13;13.45;;;1.95;;
51927;SDS011;37953;52.806;18.270;2023-05-03T12:31:39;8.43;;;1.45;;
51927;SDS011;37953;52.806;18.270;2023-05-03T12:34:07;6.00;;;1.17;;
51927;SDS011;37953;52.806;18.270;2023-05-03T12:36:33;7.38;;;1.42;;
51927;SDS011;37953;52.806;18.270;2023-05-03T12:39:06;6.28;;;1.38;;
51927;SDS011;37953;52.806;18.270;2023-05-03T12:41:32;5.15;;;1.50;;
51927;SDS011;37953;52.806;18.270;2023-05-03T12:43:59;6.85;;;1.73;;
51927;SDS011;37953;52.806;18.270;2023-05-03T12:46:26;3.47;;;1.30;;
51927;SDS011;37953;52.806;18.270;2023-05-03T12:48:53;7.47;;;1.80;;
51927;SDS011;37953;52.806;18.270;2023-05-03T12:51:19;6.32;;;1.60;;
51927;SDS011;37953;52.806;18.270;2023-05-03T12:53:46;5.57;;;1.38;;
51927;SDS011;37953;52.806;18.270;2023-05-03T12:56:12;6.72;;;2.70;;
51927;SDS011;37953;52.806;18.270;2023-05-03T12:58:44;7.60;;;1.90;;
51927;SDS011;37953;52.806;18.270;2023-05-03T13:01:14;7.97;;;2.10;;
51927;SDS011;37953;52.806;18.270;2023-05-03T13:03:47;9.13;;;1.58;;
51927;SDS011;37953;52.806;18.270;2023-05-03T13:06:12;6.18;;;1.33;;
51927;SDS011;37953;52.806;18.270;2023-05-03T13:08:39;10.48;;;1.73;;
51927;SDS011;37953;52.806;18.270;2023-05-03T13:11:05;6.78;;;1.38;;
51927;SDS011;37953;52.806;18.270;2023-05-03T13:13:32;9.15;;;1.80;;
51927;SDS011;37953;52.806;18.270;2023-05-03T13:15:58;7.18;;;1.45;;
51927;SDS011;37953;52.806;18.270;2023-05-03T13:18:24;8.55;;;1.70;;
51927;SDS011;37953;52.806;18.270;2023-05-03T13:20:50;12.73;;;1.77;;
51927;SDS011;37953;52.806;18.270;2023-05-03T13:23:16;8.50;;;1.45;;
51927;SDS011;37953;52.806;18.270;2023-05-03T13:25:43;8.15;;;1.35;;
51927;SDS011;37953;52.806;18.270;2023-05-03T13:28:09;9.90;;;1.58;;
51927;SDS011;37953;52.806;18.270;2023-05-03T13:30:35;5.85;;;1.30;;
51927;SDS011;37953;52.806;18.270;2023-05-03T13:33:01;8.85;;;1.70;;
51927;SDS011;37953;52.806;18.270;2023-05-03T13:35:27;7.18;;;1.67;;
51927;SDS011;37953;52.806;18.270;2023-05-03T13:37:53;10.98;;;1.65;;
51927;SDS011;37953;52.806;18.270;2023-05-03T13:40:19;9.32;;;1.50;;
51927;SDS011;37953;52.806;18.270;2023-05-03T13:42:45;8.55;;;1.30;;
51927;SDS011;37953;52.806;18.270;2023-05-03T13:45:17;6.70;;;2.40;;
51927;SDS011;37953;52.806;18.270;2023-05-03T13:47:50;10.52;;;2.80;;
51927;SDS011;37953;52.806;18.270;2023-05-03T13:50:15;6.97;;;1.63;;
51927;SDS011;37953;52.806;18.270;2023-05-03T13:52:42;12.27;;;1.80;;
51927;SDS011;37953;52.806;18.270;2023-05-03T13:55:09;10.45;;;1.60;;
51927;SDS011;37953;52.806;18.270;2023-05-03T13:57:35;6.20;;;1.40;;
51927;SDS011;37953;52.806;18.270;2023-05-03T14:00:01;7.72;;;1.55;;
51927;SDS011;37953;52.806;18.270;2023-05-03T14:02:27;7.15;;;1.45;;
51927;SDS011;37953;52.806;18.270;2023-05-03T14:04:53;8.90;;;1.58;;
51927;SDS011;37953;52.806;18.270;2023-05-03T14:07:19;11.85;;;2.00;;
51927;SDS011;37953;52.806;18.270;2023-05-03T14:09:45;7.43;;;1.55;;
51927;SDS011;37953;52.806;18.270;2023-05-03T14:12:11;10.25;;;1.50;;
51927;SDS011;37953;52.806;18.270;2023-05-03T14:14:37;7.30;;;1.60;;
51927;SDS011;37953;52.806;18.270;2023-05-03T14:17:04;7.75;;;1.63;;
51927;SDS011;37953;52.806;18.270;2023-05-03T14:19:32;11.15;;;1.50;;
51927;SDS011;37953;52.806;18.270;2023-05-03T14:22:04;9.40;;;1.58;;
51927;SDS011;37953;52.806;18.270;2023-05-03T14:24:30;8.43;;;1.48;;
51927;SDS011;37953;52.806;18.270;2023-05-03T14:26:57;7.68;;;1.58;;
51927;SDS011;37953;52.806;18.270;2023-05-03T14:29:24;8.77;;;1.52;;
51927;SDS011;37953;52.806;18.270;2023-05-03T14:31:50;5.03;;;1.38;;
51927;SDS011;37953;52.806;18.270;2023-05-03T14:34:16;4.72;;;1.27;;
51927;SDS011;37953;52.806;18.270;2023-05-03T14:36:42;6.20;;;1.55;;
51927;SDS011;37953;52.806;18.270;2023-05-03T14:39:09;7.82;;;1.50;;
51927;SDS011;37953;52.806;18.270;2023-05-03T14:41:41;8.98;;;1.73;;
51927;SDS011;37953;52.806;18.270;2023-05-03T14:44:07;5.88;;;1.35;;
51927;SDS011;37953;52.806;18.270;2023-05-03T14:46:33;4.82;;;1.42;;
51927;SDS011;37953;52.806;18.270;2023-05-03T14:48:59;7.72;;;1.40;;
51927;SDS011;37953;52.806;18.270;2023-05-03T14:51:25;6.95;;;1.65;;
51927;SDS011;37953;52.806;18.270;2023-05-03T14:53:52;7.93;;;1.65;;
51927;SDS011;37953;52.806;18.270;2023-05-03T14:56:19;11.10;;;1.77;;
51927;SDS011;37953;52.806;18.270;2023-05-03T14:58:45;7.00;;;1.50;;
51927;SDS011;37953;52.806;18.270;2023-05-03T15:01:18;6.38;;;1.70;;